CheckWX is a tool to help pilots better visualize weather data.  It is not intended as a substitute for an official pre-flight weather briefing.

05:55:13 UTC

LFPN TAF
Toussus-le-Noble Airport
Toussus-le-Noble, France
TAF LFPN 250500Z 2506/2515 30005KT CAVOK TEMPO 2506/2508 4000 BR TEMPO 2508/2511 BKN020 TEMPO 2512/2515 01015G25KT

Mar-25@
06:00 UTC

Mar-25 @ 06:00 UTC

Mar-25@
15:00 UTC

Mar-25 @ 15:00 UTC

TAF LFPN 250500Z 2506/2515 30005KT CAVOK
Wind
  • 300° at 5 KTS
Conditions
No significant weather
Cloud Levels
  • No significant clouds

Mar-25@
06:00 UTC

Mar-25 @ 06:00 UTC

Mar-25@
08:00 UTC

Mar-25 @ 08:00 UTC

TEMPO 2506/2508 4000 BR

Temporary

Temporary Changes expected for less than half the time period

Conditions
Mist

Mar-25@
08:00 UTC

Mar-25 @ 08:00 UTC

Mar-25@
11:00 UTC

Mar-25 @ 11:00 UTC

TEMPO 2508/2511 BKN020

Temporary

Temporary Changes expected for less than half the time period

Cloud Levels
  • Broken at 2,000' AGL

Mar-25@
12:00 UTC

Mar-25 @ 12:00 UTC

Mar-25@
15:00 UTC

Mar-25 @ 15:00 UTC

TEMPO 2512/2515 01015G25KT

Temporary

Temporary Changes expected for less than half the time period

Wind
  • 010° at 15 KTS
  • {Gusting to 25 KTS